Time;durP1;ratioP1;P1;durP2;ratioP2;P2;SDS_P1;SDS_P2;PMS_P1;PMS_P2;Temp;Humidity;BMP_temperature;BMP_pressure;BME280_temperature;BME280_humidity;BME280_pressure;Samples;Min_cycle;Max_cycle;Signal;HPM_P1;HPM_P2
2022/01/26 00:19:54;;;;;;;27.77;15.50;;;;;;;2.29;100.00;100568.34;5053235;28;20204;-83
2022/01/26 00:22:43;;;;;;;27.33;17.37;;;;;;;2.07;100.00;100559.78;5066230;28;20252;-83
2022/01/26 00:25:32;;;;;;;30.07;17.10;;;;;;;2.14;100.00;100569.34;5113165;28;20190;-83
2022/01/26 00:28:20;;;;;;;34.33;17.20;;;;;;;2.15;100.00;100567.59;5114930;28;20194;-83
2022/01/26 00:39:12;;;;;;;28.47;15.63;;;;;;;1.79;100.00;100577.38;5116030;28;20194;-83
2022/01/26 00:41:45;;;;;;;29.20;16.43;;;;;;;1.75;100.00;100578.28;5108599;28;20187;-83
2022/01/26 00:44:14;;;;;;;31.43;16.47;;;;;;;1.94;100.00;100581.66;5107676;28;20654;-85
2022/01/26 00:46:48;;;;;;;31.50;15.10;;;;;;;2.01;100.00;100578.09;5114007;28;20197;-83
2022/01/26 00:49:20;;;;;;;30.90;15.33;;;;;;;2.06;100.00;100567.66;5033434;28;20189;-84
2022/01/26 00:51:51;;;;;;;27.50;15.33;;;;;;;2.03;100.00;100568.53;5029382;28;20208;-83
2022/01/26 00:54:20;;;;;;;28.07;15.33;;;;;;;2.19;100.00;100572.75;5039043;28;20317;-83
2022/01/26 00:56:49;;;;;;;27.13;15.53;;;;;;;2.19;100.00;100574.50;5038768;28;20210;-84
2022/01/26 00:59:18;;;;;;;27.57;15.07;;;;;;;2.25;100.00;100582.31;5042967;28;20194;-84
2022/01/26 01:01:47;;;;;;;26.20;15.03;;;;;;;2.28;100.00;100579.69;5058755;28;20232;-83
2022/01/26 01:04:15;;;;;;;29.40;16.50;;;;;;;2.17;100.00;100587.59;5062698;28;20227;-83
2022/01/26 01:06:48;;;;;;;25.53;14.87;;;;;;;2.26;100.00;100579.69;5081256;28;20199;-83
2022/01/26 01:09:20;;;;;;;28.73;16.33;;;;;;;2.04;100.00;100580.72;5097655;28;20192;-84
2022/01/26 01:11:55;;;;;;;28.23;16.50;;;;;;;2.04;100.00;100575.50;5094537;28;20206;-83
2022/01/26 01:14:23;;;;;;;30.57;16.17;;;;;;;2.21;100.00;100584.06;5038663;28;20227;-82
2022/01/26 01:16:54;;;;;;;30.43;16.23;;;;;;;2.11;100.00;100585.00;5032573;28;20221;-84
2022/01/26 01:19:33;;;;;;;27.23;16.03;;;;;;;2.06;100.00;100585.94;5029194;28;20190;-84
2022/01/26 01:30:43;;;;;;;30.40;15.90;;;;;;;2.24;100.00;100591.03;5068439;28;20200;-83
2022/01/26 01:33:19;;;;;;;27.63;15.57;;;;;;;2.30;100.00;100591.84;5092011;28;20190;-83
2022/01/26 01:35:49;;;;;;;26.93;15.43;;;;;;;2.32;100.00;100601.41;5121365;28;20667;-84
2022/01/26 01:38:19;;;;;;;23.90;14.67;;;;;;;2.42;100.00;100600.50;5054831;28;20243;-83
2022/01/26 01:40:51;;;;;;;29.20;15.37;;;;;;;2.29;100.00;100603.19;5052708;28;20242;-83
2022/01/26 01:43:21;;;;;;;26.63;15.60;;;;;;;2.34;100.00;100589.22;5055742;28;20201;-83
2022/01/26 01:45:55;;;;;;;29.73;17.07;;;;;;;2.26;100.00;100602.34;5049513;28;20247;-84
2022/01/26 01:48:28;;;;;;;27.37;15.73;;;;;;;2.05;100.00;100592.91;5055187;28;20197;-83
2022/01/26 01:50:59;;;;;;;28.30;15.80;;;;;;;2.27;100.00;100597.09;5056760;28;20216;-84
2022/01/26 01:53:34;;;;;;;29.23;15.83;;;;;;;2.24;100.00;100591.03;5058538;28;20243;-85
2022/01/26 01:56:06;;;;;;;27.23;14.53;;;;;;;2.15;100.00;100586.75;5081734;28;20212;-84
2022/01/26 01:58:42;;;;;;;29.43;16.40;;;;;;;2.04;100.00;100591.19;5102996;28;20226;-84
2022/01/26 02:01:10;;;;;;;26.90;15.63;;;;;;;2.20;100.00;100590.19;5121307;28;20227;-84
2022/01/26 02:03:38;;;;;;;28.23;15.43;;;;;;;2.22;100.00;100584.94;5052971;28;20235;-84
2022/01/26 02:06:07;;;;;;;29.03;15.33;;;;;;;2.11;100.00;100584.16;5050961;28;20255;-84
2022/01/26 02:08:35;;;;;;;31.43;15.87;;;;;;;2.14;100.00;100581.53;5049565;28;20209;-84
2022/01/26 02:11:07;;;;;;;28.87;16.37;;;;;;;2.11;100.00;100579.78;5055104;28;20252;-84
2022/01/26 02:13:43;;;;;;;25.73;15.43;;;;;;;2.08;100.00;100584.19;5048983;28;20193;-83
2022/01/26 02:16:18;;;;;;;34.03;16.23;;;;;;;2.09;100.00;100584.16;5051203;28;20227;-83
2022/01/26 02:19:04;;;;;;;29.37;15.17;;;;;;;2.19;100.00;100590.19;5049614;28;20212;-84
2022/01/26 02:49:41;;;;;;;27.43;14.83;;;;;;;1.65;100.00;100569.63;5116788;28;20240;-83
2022/01/26 02:52:25;;;;;;;27.77;16.10;;;;;;;1.38;100.00;100562.78;5112766;28;20183;-84
2022/01/26 02:57:51;;;;;;;28.57;15.13;;;;;;;1.85;100.00;100561.69;5095976;28;20271;-84
2022/01/26 03:00:26;;;;;;;25.40;14.53;;;;;;;1.69;100.00;100554.81;5116104;28;20257;-83
2022/01/26 03:02:58;;;;;;;26.67;14.40;;;;;;;1.56;100.00;100555.75;5116330;28;20199;-83
2022/01/26 03:05:32;;;;;;;24.70;14.33;;;;;;;1.56;100.00;100553.13;5111749;28;20191;-84
2022/01/26 03:08:04;;;;;;;25.73;13.20;;;;;;;1.71;100.00;100542.59;5114261;28;20187;-83
2022/01/26 03:10:43;;;;;;;26.20;13.37;;;;;;;1.80;100.00;100541.69;5114554;28;20251;-83
2022/01/26 03:13:16;;;;;;;24.93;13.20;;;;;;;1.73;100.00;100546.06;5110924;28;20194;-84
2022/01/26 03:15:49;;;;;;;23.13;12.33;;;;;;;1.73;100.00;100544.31;5108772;28;20240;-83
2022/01/26 03:21:11;;;;;;;24.30;12.73;;;;;;;1.50;100.00;100559.25;5111617;28;20260;-83
2022/01/26 03:29:43;;;;;;;20.33;12.07;;;;;;;1.54;100.00;100542.69;5041365;28;20233;-83
2022/01/26 03:34:57;;;;;;;21.57;12.50;;;;;;;1.59;100.00;100546.16;5032369;28;20248;-84
2022/01/26 03:37:30;;;;;;;22.87;13.17;;;;;;;1.62;100.00;100534.81;5027736;28;20247;-83
2022/01/26 03:40:00;;;;;;;22.93;13.10;;;;;;;1.58;100.00;100523.53;5030711;28;20217;-84
2022/01/26 03:42:30;;;;;;;19.53;11.70;;;;;;;1.67;100.00;100526.09;5072228;28;20195;-84
2022/01/26 03:44:59;;;;;;;19.77;12.00;;;;;;;1.72;100.00;100528.66;5026491;28;20201;-84
2022/01/26 03:47:28;;;;;;;23.00;12.80;;;;;;;1.66;100.00;100533.94;5028771;28;20214;-84
2022/01/26 03:49:57;;;;;;;21.53;12.57;;;;;;;1.72;100.00;100536.50;5022029;28;20199;-83
2022/01/26 03:52:26;;;;;;;22.10;12.40;;;;;;;1.76;100.00;100539.97;5006285;28;20202;-84
2022/01/26 03:54:56;;;;;;;20.30;12.83;;;;;;;1.66;100.00;100529.56;5012104;28;20430;-84
2022/01/26 03:57:27;;;;;;;22.10;12.17;;;;;;;1.65;100.00;100532.19;5010964;28;20202;-83
2022/01/26 04:00:01;;;;;;;21.07;11.90;;;;;;;1.61;100.00;100539.16;5013099;28;20229;-84
2022/01/26 04:02:30;;;;;;;21.60;12.53;;;;;;;1.69;100.00;100532.16;5038019;28;20208;-84
2022/01/26 04:05:01;;;;;;;20.27;12.60;;;;;;;1.68;100.00;100516.50;5066336;28;20204;-84
2022/01/26 04:07:29;;;;;;;21.37;11.87;;;;;;;1.64;100.00;100520.88;5065948;28;20204;-83
2022/01/26 04:10:05;;;;;;;21.07;12.07;;;;;;;1.48;100.00;100527.06;5066832;28;20226;-83
2022/01/26 04:12:36;;;;;;;21.10;11.70;;;;;;;1.37;100.00;100523.63;5091338;28;20195;-84
2022/01/26 04:15:16;;;;;;;19.83;12.63;;;;;;;1.26;100.00;100522.81;5093988;28;20199;-83
2022/01/26 04:17:45;;;;;;;19.70;11.87;;;;;;;1.42;100.00;100527.94;5093845;28;20196;-84
2022/01/26 04:20:13;;;;;;;19.13;11.97;;;;;;;1.32;100.00;100517.56;5092325;28;20220;-84
2022/01/26 04:22:51;;;;;;;17.93;11.43;;;;;;;1.46;100.00;100530.56;5092594;28;20213;-83
2022/01/26 04:25:24;;;;;;;18.03;11.40;;;;;;;1.56;100.00;100532.25;5094927;28;20199;-83
2022/01/26 04:27:55;;;;;;;19.97;12.50;;;;;;;1.53;100.00;100530.50;5090381;28;20198;-83
2022/01/26 04:30:25;;;;;;;20.23;11.93;;;;;;;1.49;100.00;100530.53;5094374;28;20192;-83
2022/01/26 04:32:55;;;;;;;18.73;11.20;;;;;;;1.38;100.00;100522.75;5094925;28;20191;-83
2022/01/26 04:35:24;;;;;;;19.80;11.17;;;;;;;1.33;100.00;100525.38;5093829;28;20195;-83
2022/01/26 04:38:11;;;;;;;18.63;11.57;;;;;;;1.32;100.00;100525.38;5090259;28;20191;-83
2022/01/26 04:40:47;;;;;;;19.00;11.67;;;;;;;1.32;100.00;100526.25;5066054;28;20191;-83
2022/01/26 04:43:19;;;;;;;18.00;11.80;;;;;;;1.27;100.00;100521.94;5091292;28;20210;-84
2022/01/26 04:45:49;;;;;;;20.30;12.27;;;;;;;1.16;100.00;100527.22;5091342;28;20195;-83
2022/01/26 04:48:18;;;;;;;18.67;10.77;;;;;;;1.20;100.00;100528.06;5093563;28;20266;-83
2022/01/26 04:50:47;;;;;;;17.47;10.90;;;;;;;1.29;100.00;100520.19;5094527;28;20203;-84
2022/01/26 04:53:15;;;;;;;17.60;11.33;;;;;;;1.32;100.00;100512.34;5088529;28;20190;-84
2022/01/26 04:55:43;;;;;;;17.87;11.50;;;;;;;1.27;100.00;100509.75;5088325;28;20203;-83
2022/01/26 04:58:11;;;;;;;18.30;12.90;;;;;;;1.24;100.00;100496.72;5092721;28;20196;-83
2022/01/26 05:00:41;;;;;;;18.60;11.80;;;;;;;1.15;100.00;100494.13;5094102;28;20231;-83
2022/01/26 05:03:11;;;;;;;18.17;11.57;;;;;;;1.20;100.00;100476.72;5082996;28;20249;-84
2022/01/26 05:05:40;;;;;;;17.87;11.60;;;;;;;1.31;100.00;100481.91;5091744;28;20187;-84
2022/01/26 05:08:08;;;;;;;17.30;10.80;;;;;;;1.31;100.00;100480.16;5040586;28;20198;-84
2022/01/26 05:10:39;;;;;;;18.90;11.47;;;;;;;1.27;100.00;100472.38;5090147;28;20196;-84
2022/01/26 05:13:09;;;;;;;18.20;11.03;;;;;;;1.29;100.00;100468.00;5029516;28;20201;-84
2022/01/26 05:15:38;;;;;;;16.73;10.73;;;;;;;1.27;100.00;100473.22;5023098;28;20287;-84
2022/01/26 05:18:06;;;;;;;19.53;11.60;;;;;;;1.30;100.00;100470.59;4995284;28;20197;-83
2022/01/26 05:20:36;;;;;;;22.53;12.63;;;;;;;1.38;100.00;100466.22;5031743;28;20217;-83
2022/01/26 05:23:04;;;;;;;21.57;12.07;;;;;;;1.38;100.00;100476.66;5029489;28;20205;-83
2022/01/26 05:25:33;;;;;;;18.83;10.93;;;;;;;1.32;100.00;100479.28;5000628;28;20194;-83
2022/01/26 05:28:01;;;;;;;21.40;12.50;;;;;;;1.25;100.00;100479.31;5026618;28;20237;-83
2022/01/26 05:30:30;;;;;;;20.27;12.53;;;;;;;1.12;100.00;100484.59;5034641;28;20196;-84
2022/01/26 05:32:59;;;;;;;22.90;12.53;;;;;;;1.06;100.00;100481.13;5087637;28;20207;-84
2022/01/26 05:35:27;;;;;;;22.27;12.17;;;;;;;1.20;100.00;100484.56;5086897;28;20245;-84
2022/01/26 05:37:56;;;;;;;21.73;12.03;;;;;;;1.29;100.00;100476.69;5088053;28;20200;-84
2022/01/26 05:40:25;;;;;;;22.13;12.40;;;;;;;1.25;100.00;100484.53;5091797;28;20219;-84
2022/01/26 05:42:53;;;;;;;18.53;11.70;;;;;;;1.35;100.00;100489.72;5051951;28;20196;-84
2022/01/26 05:45:27;;;;;;;22.20;12.23;;;;;;;1.27;100.00;100493.25;5050230;28;20197;-84
2022/01/26 05:47:56;;;;;;;20.30;12.50;;;;;;;1.38;100.00;100494.06;5053578;28;20200;-83
2022/01/26 05:50:24;;;;;;;22.80;13.47;;;;;;;1.30;100.00;100504.53;5037087;28;20217;-83
2022/01/26 05:52:52;;;;;;;20.97;12.13;;;;;;;1.35;100.00;100504.47;5025731;28;20198;-84
2022/01/26 05:55:22;;;;;;;24.10;13.00;;;;;;;1.29;100.00;100499.31;5034712;28;20261;-84
2022/01/26 05:57:50;;;;;;;21.50;12.97;;;;;;;1.25;100.00;100514.09;5027625;28;20192;-84
2022/01/26 06:00:19;;;;;;;24.03;13.63;;;;;;;1.21;100.00;100501.94;5041336;28;20227;-84
2022/01/26 06:02:48;;;;;;;22.67;13.13;;;;;;;1.39;100.00;100521.88;5067578;28;20242;-84
2022/01/26 06:05:16;;;;;;;20.97;12.50;;;;;;;1.42;100.00;100520.13;5075813;28;20250;-84
2022/01/26 06:07:45;;;;;;;23.17;13.57;;;;;;;1.35;100.00;100527.97;5077214;28;20220;-84
2022/01/26 06:10:14;;;;;;;24.10;13.70;;;;;;;1.29;100.00;100523.66;5075438;28;20651;-84
2022/01/26 06:12:45;;;;;;;21.30;12.93;;;;;;;1.29;100.00;100526.28;5074531;28;20188;-84
2022/01/26 06:15:13;;;;;;;24.37;14.30;;;;;;;1.32;100.00;100538.44;5072471;28;20204;-83
2022/01/26 06:17:42;;;;;;;24.33;13.80;;;;;;;1.31;100.00;100557.59;5058477;28;20238;-83
2022/01/26 06:20:11;;;;;;;25.40;14.10;;;;;;;1.24;100.00;100548.03;5076298;28;20220;-84
2022/01/26 06:22:40;;;;;;;24.70;14.30;;;;;;;1.25;100.00;100549.78;4933206;29;20273;-84
2022/01/26 06:25:09;;;;;;;24.90;14.00;;;;;;;1.18;100.00;100555.91;4935767;29;20196;-84
2022/01/26 06:27:39;;;;;;;26.30;14.37;;;;;;;1.15;100.00;100575.03;4926395;29;20204;-83
2022/01/26 06:30:10;;;;;;;25.20;14.70;;;;;;;1.12;100.00;100560.25;4932784;29;20205;-84
2022/01/26 06:32:39;;;;;;;25.67;15.07;;;;;;;1.11;100.00;100563.75;4825427;29;20216;-83
2022/01/26 06:35:09;;;;;;;25.77;14.83;;;;;;;1.23;100.00;100568.03;4843452;29;20203;-83
2022/01/26 06:37:37;;;;;;;23.13;14.13;;;;;;;1.26;100.00;100564.59;4840885;29;20231;-83
2022/01/26 06:40:07;;;;;;;27.67;15.83;;;;;;;1.25;100.00;100553.25;4857340;29;20221;-84
2022/01/26 06:42:49;;;;;;;24.73;15.33;;;;;;;1.15;100.00;100556.75;4846173;29;20242;-84
2022/01/26 06:45:22;;;;;;;27.77;15.17;;;;;;;1.21;100.00;100571.53;4858151;29;20204;-83
2022/01/26 06:48:25;;;;;;;25.90;15.77;;;;;;;1.26;100.00;100573.28;4913226;29;20228;-83
2022/01/26 06:50:53;;;;;;;28.70;15.67;;;;;;;1.31;100.00;100554.97;4934985;29;20240;-84
2022/01/26 06:53:21;;;;;;;29.10;15.57;;;;;;;1.29;100.00;100549.78;4903786;29;20201;-82
2022/01/26 06:55:50;;;;;;;29.27;15.93;;;;;;;1.20;100.00;100528.06;4938685;29;20197;-84
2022/01/26 06:58:19;;;;;;;29.93;16.03;;;;;;;1.31;100.00;100529.75;4935725;29;20197;-84
2022/01/26 07:00:48;;;;;;;28.53;16.00;;;;;;;1.28;100.00;100518.47;4936143;29;20232;-84
2022/01/26 07:03:17;;;;;;;31.07;15.50;;;;;;;1.27;100.00;100524.56;4954553;28;20212;-83
2022/01/26 07:05:46;;;;;;;28.43;14.60;;;;;;;1.32;100.00;100535.81;5028761;28;20365;-84
2022/01/26 07:08:14;;;;;;;27.03;15.37;;;;;;;1.34;100.00;100541.91;5030896;28;20225;-84
2022/01/26 07:10:42;;;;;;;28.37;15.53;;;;;;;1.37;100.00;100532.34;5024757;28;20301;-84
2022/01/26 07:13:11;;;;;;;32.50;17.03;;;;;;;1.41;100.00;100528.81;4957110;28;20194;-84
2022/01/26 07:21:26;;;;;;;31.27;15.37;;;;;;;1.30;100.00;100520.19;5013233;28;20226;-84
2022/01/26 07:23:55;;;;;;;32.40;15.70;;;;;;;1.18;100.00;100527.22;5013276;28;20666;-84
2022/01/26 07:26:27;;;;;;;29.83;16.37;;;;;;;1.33;100.00;100520.16;5013297;28;20245;-84
2022/01/26 07:28:55;;;;;;;28.10;16.27;;;;;;;1.31;100.00;100539.31;4967088;28;20198;-84
2022/01/26 07:31:23;;;;;;;30.17;16.10;;;;;;;1.38;100.00;100541.91;5009683;28;20221;-84
2022/01/26 07:33:55;;;;;;;29.27;15.83;;;;;;;1.46;100.00;100543.63;5015389;28;20198;-84
2022/01/26 07:36:24;;;;;;;31.10;16.43;;;;;;;1.60;100.00;100536.56;5009749;28;20248;-84
2022/01/26 07:38:54;;;;;;;34.87;19.43;;;;;;;1.54;100.00;100537.44;5040363;28;20192;-84
2022/01/26 07:41:23;;;;;;;32.80;17.17;;;;;;;1.58;100.00;100538.31;5073184;28;20220;-84
2022/01/26 07:43:51;;;;;;;32.10;17.70;;;;;;;1.29;100.00;100515.84;5074144;28;20643;-84
2022/01/26 07:46:22;;;;;;;31.67;17.80;;;;;;;0.98;100.00;100503.81;5069908;28;20494;-84
2022/01/26 07:48:51;;;;;;;34.90;17.83;;;;;;;1.04;100.00;100506.38;5074886;28;20665;-84
2022/01/26 07:51:21;;;;;;;35.13;17.40;;;;;;;1.22;100.00;100513.25;5072763;28;20208;-84
2022/01/26 07:53:49;;;;;;;30.33;16.47;;;;;;;1.39;100.00;100529.72;5029343;28;20233;-84
2022/01/26 07:56:17;;;;;;;31.07;16.43;;;;;;;1.47;100.00;100555.78;5026096;28;20348;-84
2022/01/26 07:58:48;;;;;;;36.47;17.40;;;;;;;1.55;100.00;100546.19;4989703;28;20211;-84
2022/01/26 08:01:16;;;;;;;30.53;17.33;;;;;;;1.25;100.00;100521.94;4992946;28;20706;-84
2022/01/26 08:03:47;;;;;;;34.37;17.73;;;;;;;1.17;100.00;100502.84;4991200;28;20237;-84
2022/01/26 08:06:18;;;;;;;36.00;18.50;;;;;;;1.14;100.00;100506.31;4990082;28;20199;-84
2022/01/26 08:08:47;;;;;;;37.30;18.37;;;;;;;1.34;100.00;100526.25;4992059;28;20207;-84
2022/01/26 08:11:16;;;;;;;41.27;19.27;;;;;;;1.11;100.00;100522.00;4996701;28;20194;-84
2022/01/26 08:13:44;;;;;;;34.80;18.80;;;;;;;1.23;100.00;100528.91;4969373;28;20207;-84
2022/01/26 08:16:12;;;;;;;34.80;17.67;;;;;;;1.39;100.00;100532.31;4981954;28;20194;-84
2022/01/26 08:18:40;;;;;;;36.03;18.73;;;;;;;1.45;100.00;100540.13;4970995;28;20196;-83
2022/01/26 08:21:09;;;;;;;39.53;19.47;;;;;;;1.63;100.00;100528.72;4973339;28;20336;-84
2022/01/26 08:23:37;;;;;;;35.47;18.17;;;;;;;1.58;100.00;100533.09;4972578;28;20260;-83
2022/01/26 08:26:07;;;;;;;41.53;19.50;;;;;;;1.32;100.00;100513.19;4973673;28;20188;-84
2022/01/26 08:28:39;;;;;;;39.63;18.93;;;;;;;1.28;100.00;100508.03;4968628;28;20203;-84
2022/01/26 08:31:07;;;;;;;40.73;19.60;;;;;;;1.31;100.00;100500.16;4979247;28;20194;-84
2022/01/26 08:33:35;;;;;;;37.83;19.97;;;;;;;1.37;100.00;100505.38;4999433;28;20204;-83
2022/01/26 08:36:05;;;;;;;38.20;18.87;;;;;;;1.33;100.00;100519.28;5028510;28;20250;-84
2022/01/26 08:38:33;;;;;;;43.43;21.33;;;;;;;1.14;100.00;100514.16;5073948;28;20197;-84
2022/01/26 08:41:01;;;;;;;39.20;19.43;;;;;;;1.18;100.00;100512.41;5069735;28;20710;-83
2022/01/26 08:43:31;;;;;;;41.27;19.57;;;;;;;1.28;100.00;100502.81;5067567;28;20215;-84
2022/01/26 08:45:59;;;;;;;41.73;19.93;;;;;;;1.37;100.00;100515.81;5069510;28;20195;-84
2022/01/26 08:48:28;;;;;;;35.73;18.00;;;;;;;1.48;100.00;100532.28;5054158;28;20196;-84
2022/01/26 08:50:56;;;;;;;43.03;19.80;;;;;;;1.57;100.00;100520.94;5074160;28;20212;-84
2022/01/26 08:53:26;;;;;;;36.63;18.20;;;;;;;1.68;100.00;100533.03;5073858;28;20210;-84
2022/01/26 08:55:54;;;;;;;35.33;18.20;;;;;;;1.68;100.00;100546.09;5073934;28;20184;-83
2022/01/26 08:58:22;;;;;;;40.00;19.77;;;;;;;1.64;100.00;100559.16;5068565;28;20204;-84
2022/01/26 09:00:54;;;;;;;41.80;18.90;;;;;;;1.80;100.00;100560.81;5070860;28;20224;-84
2022/01/26 09:03:23;;;;;;;37.20;18.83;;;;;;;1.87;100.00;100554.69;5070082;28;20184;-84
2022/01/26 09:05:51;;;;;;;40.63;20.67;;;;;;;1.94;100.00;100555.53;5012059;28;20229;-84
2022/01/26 09:08:19;;;;;;;45.17;21.30;;;;;;;1.68;100.00;100546.09;5009622;28;20210;-84
2022/01/26 09:10:53;;;;;;;43.07;20.33;;;;;;;1.59;100.00;100546.16;4996909;28;20261;-83
2022/01/26 09:13:21;;;;;;;43.37;22.27;;;;;;;1.54;100.00;100540.06;5008221;28;20194;-84
2022/01/26 09:15:50;;;;;;;39.67;19.70;;;;;;;1.67;100.00;100552.19;5010258;28;20234;-84
2022/01/26 09:18:32;;;;;;;42.10;20.00;;;;;;;1.82;100.00;100548.63;5005787;28;20256;-84
2022/01/26 09:21:00;;;;;;;44.63;20.30;;;;;;;1.78;100.00;100551.28;5015173;28;20190;-83
2022/01/26 09:23:28;;;;;;;40.33;18.30;;;;;;;1.85;100.00;100560.81;5027326;28;20204;-83
2022/01/26 09:25:56;;;;;;;41.87;20.70;;;;;;;1.65;100.00;100540.91;5067203;28;20200;-84
2022/01/26 09:28:26;;;;;;;41.00;20.20;;;;;;;1.65;100.00;100538.28;5076763;28;20196;-84
2022/01/26 09:30:55;;;;;;;41.73;20.80;;;;;;;1.66;100.00;100558.31;5071736;28;20318;-83
2022/01/26 09:33:27;;;;;;;39.73;20.50;;;;;;;1.86;100.00;100566.03;5078808;28;20192;-84
2022/01/26 09:35:55;;;;;;;44.00;20.77;;;;;;;1.82;100.00;100566.03;5075197;28;20184;-83
2022/01/26 09:38:29;;;;;;;41.63;21.27;;;;;;;1.88;100.00;100555.56;5073150;28;20193;-83
2022/01/26 09:40:58;;;;;;;39.63;20.23;;;;;;;1.90;100.00;100556.41;5075548;28;20222;-83
2022/01/26 09:43:28;;;;;;;45.90;21.83;;;;;;;1.98;100.00;100570.31;5070353;28;20195;-84
2022/01/26 09:45:58;;;;;;;55.83;26.77;;;;;;;2.04;100.00;100566.78;5067581;28;20200;-84
2022/01/26 09:48:28;;;;;;;43.57;21.07;;;;;;;2.10;100.00;100579.81;5071846;28;20185;-83
2022/01/26 09:50:56;;;;;;;44.13;20.87;;;;;;;2.09;100.00;100570.22;5038355;28;20336;-83
2022/01/26 09:53:29;;;;;;;42.60;20.70;;;;;;;2.05;100.00;100558.06;5072170;28;20207;-84
2022/01/26 09:55:58;;;;;;;43.70;20.93;;;;;;;2.08;100.00;100565.88;5070899;28;20193;-84
2022/01/26 09:58:27;;;;;;;44.33;23.03;;;;;;;1.82;100.00;100560.81;5071393;28;20207;-83
2022/01/26 10:01:00;;;;;;;44.40;23.00;;;;;;;1.63;100.00;100560.91;5071407;28;20228;-83
2022/01/26 10:03:34;;;;;;;40.30;21.67;;;;;;;1.68;100.00;100566.13;5076860;28;20220;-83
2022/01/26 10:06:07;;;;;;;40.03;20.47;;;;;;;1.73;100.00;100564.34;5076793;28;20196;-83
2022/01/26 10:17:24;;;;;;;44.47;20.27;;;;;;;1.94;100.00;100551.19;5076721;28;20209;-84
2022/01/26 10:20:00;;;;;;;42.67;20.87;;;;;;;2.01;100.00;100559.81;5074109;28;20639;-84
2022/01/26 10:22:30;;;;;;;41.37;20.93;;;;;;;2.10;100.00;100553.66;5072310;28;20219;-84
2022/01/26 10:25:09;;;;;;;39.20;20.73;;;;;;;2.14;100.00;100548.41;5070551;28;20184;-84
2022/01/26 10:27:57;;;;;;;44.33;19.23;;;;;;;2.19;100.00;100567.53;5014804;28;20204;-83
2022/01/26 10:30:26;;;;;;;40.67;20.23;;;;;;;2.19;100.00;100556.22;5004918;28;20207;-83
2022/01/26 10:32:54;;;;;;;39.67;19.17;;;;;;;2.18;100.00;100557.97;5014788;28;20206;-84
2022/01/26 10:35:24;;;;;;;38.73;18.77;;;;;;;2.09;100.00;100552.81;5014706;28;20199;-84
2022/01/26 10:37:54;;;;;;;40.03;18.87;;;;;;;1.95;100.00;100550.28;5010167;28;20203;-83
2022/01/26 10:40:26;;;;;;;39.93;18.90;;;;;;;1.90;100.00;100551.19;5010574;28;20190;-84
2022/01/26 10:43:00;;;;;;;40.13;20.07;;;;;;;1.87;100.00;100556.44;5008440;28;20218;-84
2022/01/26 10:45:36;;;;;;;40.60;19.53;;;;;;;1.97;100.00;100560.72;5034387;28;20184;-83
2022/01/26 10:48:16;;;;;;;40.20;18.90;;;;;;;2.03;100.00;100557.19;5068959;28;20196;-83
2022/01/26 10:51:31;;;;;;;40.53;19.27;;;;;;;2.06;100.00;100563.28;5025778;28;20195;-84
2022/01/26 10:54:12;;;;;;;40.83;20.27;;;;;;;2.12;100.00;100550.16;5077064;28;20215;-84
2022/01/26 10:56:41;;;;;;;46.43;20.70;;;;;;;2.00;100.00;100545.03;5070966;28;20200;-84
2022/01/26 10:59:10;;;;;;;45.90;20.73;;;;;;;2.11;100.00;100547.56;5074836;28;20204;-83
2022/01/26 11:01:39;;;;;;;40.80;19.33;;;;;;;2.06;100.00;100549.34;5065681;28;20255;-83
2022/01/26 11:04:09;;;;;;;45.13;20.37;;;;;;;2.11;100.00;100551.03;5069202;28;20241;-83
2022/01/26 11:06:49;;;;;;;47.00;21.40;;;;;;;2.11;100.00;100550.16;5072364;28;20193;-83
2022/01/26 11:09:21;;;;;;;43.40;21.23;;;;;;;2.11;100.00;100542.34;4993984;28;20195;-83
2022/01/26 11:12:00;;;;;;;45.93;21.60;;;;;;;1.99;100.00;100543.28;4990636;28;20242;-83
2022/01/26 11:14:39;;;;;;;49.37;22.13;;;;;;;2.07;100.00;100546.72;4983850;28;20230;-83
2022/01/26 11:17:09;;;;;;;53.50;23.03;;;;;;;2.08;100.00;100532.78;4994233;28;20209;-82
2022/01/26 11:19:43;;;;;;;51.53;22.37;;;;;;;2.09;100.00;100539.72;4992282;28;20239;-83
2022/01/26 11:22:15;;;;;;;53.70;23.83;;;;;;;2.02;100.00;100540.66;4990648;28;20223;-82
2022/01/26 11:24:53;;;;;;;53.83;24.57;;;;;;;2.04;100.00;100543.28;4992455;28;20226;-83
2022/01/26 11:27:34;;;;;;;59.23;24.37;;;;;;;1.96;100.00;100556.38;4991837;28;20231;-83
2022/01/26 11:30:16;;;;;;;59.43;24.63;;;;;;;1.97;100.00;100563.34;4992691;28;20238;-82
2022/01/26 11:32:53;;;;;;;58.93;24.07;;;;;;;1.99;100.00;100567.66;4992877;28;20201;-83
2022/01/26 11:35:24;;;;;;;60.77;26.50;;;;;;;1.91;100.00;100573.81;5072738;28;20189;-82
2022/01/26 11:38:07;;;;;;;66.93;27.47;;;;;;;1.99;100.00;100567.66;5070468;28;20188;-82
2022/01/26 11:46:28;;;;;;;67.40;28.30;;;;;;;1.96;100.00;100544.19;5075212;28;20192;-83
2022/01/26 11:49:05;;;;;;;71.93;28.53;;;;;;;2.03;100.00;100551.97;5073446;28;20201;-82
2022/01/26 11:51:44;;;;;;;67.77;27.87;;;;;;;2.01;100.00;100542.41;5068706;28;20196;-83
2022/01/26 11:54:18;;;;;;;67.03;27.13;;;;;;;1.98;100.00;100552.00;5069395;28;20208;-83
2022/01/26 11:56:58;;;;;;;65.00;28.53;;;;;;;1.89;100.00;100550.31;5034634;28;20215;-83
2022/01/26 11:59:28;;;;;;;65.73;27.27;;;;;;;1.86;100.00;100555.56;5064750;28;20246;-82
2022/01/26 12:02:01;;;;;;;65.60;28.80;;;;;;;1.92;100.00;100552.03;5051376;28;20227;-83
2022/01/26 12:04:34;;;;;;;68.73;28.40;;;;;;;1.99;100.00;100564.19;5070154;28;20216;-83
2022/01/26 12:07:20;;;;;;;72.20;29.37;;;;;;;2.02;100.00;100572.00;5071889;28;20197;-83
2022/01/26 12:09:51;;;;;;;75.83;30.17;;;;;;;2.03;100.00;100578.09;5056528;28;20188;-82
2022/01/26 12:12:22;;;;;;;72.90;29.13;;;;;;;2.03;100.00;100571.16;5048266;28;20197;-83
2022/01/26 12:15:02;;;;;;;78.10;30.43;;;;;;;2.04;100.00;100569.41;5041013;28;20308;-83
2022/01/26 12:17:34;;;;;;;71.00;29.23;;;;;;;2.09;100.00;100575.44;5050779;28;20207;-83
2022/01/26 12:32:03;;;;;;;81.03;30.77;;;;;;;2.09;100.00;100558.03;5050188;28;20223;-83
2022/01/26 12:34:39;;;;;;;83.67;30.23;;;;;;;2.02;100.00;100579.84;5035945;28;20203;-81
2022/01/26 12:37:14;;;;;;;83.87;28.80;;;;;;;2.06;100.00;100575.47;4976123;29;20424;-82
2022/01/26 12:43:00;;;;;;;76.80;29.93;;;;;;;2.00;100.00;100568.53;4972661;29;20196;-82
2022/01/26 12:45:55;;;;;;;84.43;29.67;;;;;;;2.01;100.00;100578.09;4961137;29;20256;-83
2022/01/26 12:48:24;;;;;;;85.00;31.63;;;;;;;2.06;100.00;100584.19;4955620;29;20219;-83
2022/01/26 12:50:53;;;;;;;86.10;31.63;;;;;;;1.94;100.00;100581.66;4956460;28;20204;-82
2022/01/26 12:53:26;;;;;;;82.33;31.33;;;;;;;2.04;100.00;100587.69;4910673;29;20193;-82
2022/01/26 12:55:58;;;;;;;90.20;33.07;;;;;;;2.01;100.00;100586.81;5032328;28;20245;-83
2022/01/26 12:58:29;;;;;;;88.67;33.13;;;;;;;2.03;100.00;100586.84;5074135;28;20358;-82
2022/01/26 13:01:04;;;;;;;81.17;31.23;;;;;;;2.06;100.00;100581.56;5082154;28;20220;-83
2022/01/26 13:03:35;;;;;;;72.73;28.60;;;;;;;2.06;100.00;100583.31;5069426;28;20293;-83
2022/01/26 13:06:09;;;;;;;77.70;28.50;;;;;;;2.01;100.00;100568.53;5066764;28;20200;-82
2022/01/26 13:08:41;;;;;;;84.70;30.70;;;;;;;2.00;100.00;100555.47;5073287;28;20200;-82
2022/01/26 13:11:11;;;;;;;76.47;29.43;;;;;;;2.06;100.00;100552.84;5066293;28;20214;-82
2022/01/26 13:13:42;;;;;;;80.30;29.67;;;;;;;2.06;100.00;100550.22;5068991;28;20197;-83
2022/01/26 13:16:19;;;;;;;74.37;29.40;;;;;;;2.03;100.00;100537.19;5063481;28;20261;-83
2022/01/26 13:22:11;;;;;;;81.60;30.97;;;;;;;2.10;100.00;100535.38;5058089;28;20674;-83
2022/01/26 13:27:40;;;;;;;80.17;31.10;;;;;;;2.04;100.00;100540.66;5070379;28;20683;-83
2022/01/26 13:30:28;;;;;;;82.40;30.07;;;;;;;2.08;100.00;100527.56;5067364;28;20188;-82